Time;durP1;ratioP1;P1;durP2;ratioP2;P2;SDS_P1;SDS_P2;PMS_P1;PMS_P2;Temp;Humidity;BMP_temperature;BMP_pressure;BME280_temperature;BME280_humidity;BME280_pressure;Samples;Min_cycle;Max_cycle;Signal;HPM_P1;HPM_P2
2023/02/21 02:23:06;;;;;;;2.28;1.50;;;1.80;99.90;;;;;;20859210;28;20052;-78
2023/02/21 02:33:15;;;;;;;2.50;1.27;;;1.70;99.90;;;;;;20863536;28;20147;-79
2023/02/21 02:43:42;;;;;;;2.17;1.40;;;1.40;99.90;;;;;;20833754;28;20045;-77
2023/02/21 02:53:43;;;;;;;2.85;1.30;;;1.50;99.90;;;;;;20854237;28;20041;-78
2023/02/21 03:04:13;;;;;;;6.07;1.83;;;1.10;99.90;;;;;;20857192;28;20040;-79
2023/02/21 03:14:17;;;;;;;3.23;1.90;;;1.60;99.90;;;;;;20844631;28;20026;-79
2023/02/21 03:24:21;;;;;;;5.63;2.75;;;1.90;99.90;;;;;;20829395;28;20128;-79
2023/02/21 03:34:23;;;;;;;8.20;3.22;;;2.00;99.90;;;;;;20853286;28;20030;-79
2023/02/21 03:44:24;;;;;;;7.63;3.42;;;2.10;99.90;;;;;;20838094;28;20033;-79
2023/02/21 03:54:26;;;;;;;7.40;3.92;;;2.00;99.90;;;;;;20870820;28;20029;-79
2023/02/21 04:04:30;;;;;;;6.35;3.03;;;1.90;99.90;;;;;;20875170;28;20511;-78
2023/02/21 04:14:40;;;;;;;5.27;2.97;;;1.30;99.90;;;;;;20860819;28;20038;-79
2023/02/21 04:24:43;;;;;;;5.80;3.17;;;0.90;99.90;;;;;;20845868;28;20033;-79
2023/02/21 04:34:45;;;;;;;5.15;2.55;;;0.80;99.90;;;;;;20848644;28;20100;-79
2023/02/21 04:44:46;;;;;;;11.15;2.30;;;0.90;99.90;;;;;;20823204;28;20079;-80
2023/02/21 04:54:47;;;;;;;5.05;2.10;;;0.60;99.90;;;;;;20878837;28;20310;-79
2023/02/21 05:04:48;;;;;;;14.10;2.55;;;0.50;99.90;;;;;;20877858;28;20064;-79
2023/02/21 05:14:49;;;;;;;9.38;2.88;;;0.70;99.90;;;;;;20838799;28;20025;-80
2023/02/21 05:24:50;;;;;;;6.45;2.17;;;0.60;99.90;;;;;;20876534;28;20080;-79
2023/02/21 05:34:50;;;;;;;9.73;3.08;;;0.60;99.90;;;;;;20783583;28;20029;-77
2023/02/21 05:44:51;;;;;;;6.57;3.13;;;0.60;99.90;;;;;;20828743;28;20040;-78
2023/02/21 05:54:52;;;;;;;6.38;3.30;;;0.70;99.90;;;;;;20828338;28;20053;-78
2023/02/21 06:04:53;;;;;;;6.10;3.63;;;0.60;99.90;;;;;;20790761;28;20045;-80
2023/02/21 06:14:53;;;;;;;6.90;3.47;;;0.80;99.90;;;;;;20785578;28;20026;-78
2023/02/21 06:24:54;;;;;;;9.75;4.60;;;0.90;99.90;;;;;;20763493;28;20119;-80
2023/02/21 06:34:55;;;;;;;7.05;3.60;;;0.80;99.90;;;;;;20831765;28;20034;-79
2023/02/21 06:44:56;;;;;;;8.77;3.90;;;0.90;99.90;;;;;;20878780;28;20047;-78
2023/02/21 06:54:57;;;;;;;14.50;4.35;;;1.00;99.90;;;;;;20893262;28;20114;-78
2023/02/21 07:04:57;;;;;;;6.10;3.40;;;1.00;99.90;;;;;;20854712;28;20140;-78
2023/02/21 07:14:58;;;;;;;14.65;4.85;;;1.20;99.90;;;;;;20816860;28;20078;-78
2023/02/21 07:24:59;;;;;;;6.60;2.92;;;1.80;99.90;;;;;;20845984;28;20472;-79
2023/02/21 07:35:00;;;;;;;8.70;3.20;;;2.20;99.90;;;;;;20833187;28;20025;-78
2023/02/21 07:45:01;;;;;;;6.60;3.47;;;2.90;99.90;;;;;;20839198;28;20051;-78
2023/02/21 07:55:01;;;;;;;6.40;3.55;;;3.50;99.90;;;;;;20846965;28;20066;-79
2023/02/21 08:05:05;;;;;;;8.38;4.15;;;4.10;99.90;;;;;;20854816;28;20031;-78
2023/02/21 08:15:06;;;;;;;12.57;4.72;;;5.20;99.90;;;;;;20875949;28;20032;-78
2023/02/21 08:25:11;;;;;;;9.85;4.32;;;6.30;99.90;;;;;;20887148;28;20033;-78
2023/02/21 08:35:17;;;;;;;8.23;4.35;;;5.90;99.90;;;;;;20883415;28;20033;-79
2023/02/21 08:45:21;;;;;;;9.35;4.97;;;6.20;99.90;;;;;;20855223;28;20033;-77
2023/02/21 08:55:23;;;;;;;14.23;5.75;;;6.90;99.90;;;;;;20859550;28;20046;-79
2023/02/21 09:05:27;;;;;;;13.50;5.45;;;7.60;99.90;;;;;;20878755;28;20468;-79
2023/02/21 09:15:28;;;;;;;10.50;6.20;;;8.20;99.90;;;;;;20834858;28;20033;-79
2023/02/21 09:25:29;;;;;;;15.43;6.82;;;8.50;99.90;;;;;;20868003;28;20033;-78
2023/02/21 09:35:30;;;;;;;16.60;6.57;;;9.30;99.90;;;;;;20925692;28;20095;-77
2023/02/21 09:45:33;;;;;;;10.53;5.87;;;9.40;99.90;;;;;;20829545;28;20064;-78
2023/02/21 09:55:37;;;;;;;9.75;6.57;;;10.30;99.90;;;;;;20851409;28;20033;-78
2023/02/21 10:05:52;;;;;;;11.25;6.53;;;10.40;99.90;;;;;;20855142;28;20033;-78
2023/02/21 10:16:04;;;;;;;11.18;6.53;;;10.40;99.90;;;;;;20769733;28;20026;-79
2023/02/21 10:26:09;;;;;;;21.67;7.72;;;12.10;99.90;;;;;;20768332;28;20030;-78
2023/02/21 10:36:17;;;;;;;12.82;7.55;;;11.60;99.90;;;;;;20769354;28;20025;-78
2023/02/21 10:46:27;;;;;;;15.77;8.38;;;12.10;99.90;;;;;;20849454;28;20029;-78
2023/02/21 10:56:28;;;;;;;12.88;7.43;;;12.10;99.90;;;;;;20841929;28;20168;-76
2023/02/21 11:06:38;;;;;;;12.00;7.30;;;14.20;99.90;;;;;;20870749;28;20029;-76
2023/02/21 11:16:38;;;;;;;8.45;6.18;;;14.40;99.90;;;;;;20884219;28;20104;-78
2023/02/21 11:26:49;;;;;;;14.70;7.40;;;15.40;99.90;;;;;;20910161;28;20515;-76
2023/02/21 11:36:50;;;;;;;14.23;7.40;;;14.50;99.90;;;;;;20915943;28;20030;-79
2023/02/21 11:47:15;;;;;;;14.60;6.80;;;16.00;99.90;;;;;;20871972;28;20030;-78
2023/02/21 11:57:43;;;;;;;15.82;7.30;;;15.80;99.90;;;;;;20876790;28;20037;-78
2023/02/21 12:07:52;;;;;;;12.98;6.90;;;16.20;99.90;;;;;;20853568;28;20105;-78
2023/02/21 12:18:25;;;;;;;9.85;6.40;;;16.80;99.90;;;;;;20851936;28;20029;-79
2023/02/21 12:28:34;;;;;;;9.35;6.43;;;17.00;99.90;;;;;;20849961;28;20404;-78
2023/02/21 12:39:03;;;;;;;9.68;5.70;;;17.80;99.90;;;;;;20870179;28;20040;-78
2023/02/21 12:49:34;;;;;;;12.35;5.68;;;18.50;99.90;;;;;;20844129;28;20053;-77
2023/02/21 13:00:01;;;;;;;10.00;5.75;;;17.90;99.90;;;;;;20844045;28;20064;-79
2023/02/21 13:10:08;;;;;;;14.40;5.47;;;18.90;99.90;;;;;;20853026;28;20480;-79
2023/02/21 13:20:16;;;;;;;13.00;6.63;;;19.50;99.90;;;;;;20921727;28;20029;-79
2023/02/21 13:30:36;;;;;;;10.52;6.53;;;18.80;99.90;;;;;;20923673;28;20044;-80
2023/02/21 13:40:51;;;;;;;10.80;6.20;;;20.20;99.50;;;;;;20864494;28;20041;-80
2023/02/21 13:50:55;;;;;;;9.52;5.57;;;20.60;96.90;;;;;;20836108;28;20068;-80
2023/02/21 14:00:56;;;;;;;12.13;6.05;;;20.70;97.30;;;;;;20837538;28;20539;-76
2023/02/21 14:11:05;;;;;;;9.65;5.68;;;20.30;96.70;;;;;;20829078;28;20033;-76
2023/02/21 14:21:26;;;;;;;9.68;4.15;;;20.20;97.30;;;;;;20828148;28;20087;-76
2023/02/21 14:31:46;;;;;;;8.70;4.32;;;19.50;95.20;;;;;;20846385;28;20034;-77
2023/02/21 14:42:11;;;;;;;8.45;3.80;;;19.10;95.60;;;;;;20844000;28;20512;-77
2023/02/21 14:52:20;;;;;;;60.42;7.40;;;19.30;94.60;;;;;;20837568;28;20033;-79
2023/02/21 15:02:47;;;;;;;7.35;3.40;;;18.80;92.80;;;;;;20827815;28;20029;-78
2023/02/21 15:12:49;;;;;;;8.82;3.25;;;18.00;93.00;;;;;;20887353;28;20089;-78
2023/02/21 15:23:09;;;;;;;6.38;2.90;;;18.60;93.20;;;;;;20868141;28;20040;-78
2023/02/21 15:33:19;;;;;;;5.32;2.80;;;18.50;92.60;;;;;;20837762;28;20057;-77
2023/02/21 15:43:45;;;;;;;5.75;2.85;;;18.70;93.50;;;;;;20849435;28;20172;-78
2023/02/21 15:54:08;;;;;;;6.10;3.00;;;18.50;94.20;;;;;;20857702;28;20920;-79
2023/02/21 16:04:21;;;;;;;8.95;3.35;;;18.50;94.90;;;;;;20815948;28;20029;-78
2023/02/21 16:14:30;;;;;;;13.73;4.32;;;18.30;94.70;;;;;;20818936;28;20029;-84
2023/02/21 16:24:31;;;;;;;9.50;3.88;;;16.10;97.70;;;;;;20881730;28;20079;-82
2023/02/21 16:34:34;;;;;;;6.33;3.80;;;15.30;99.90;;;;;;20839107;28;20112;-82
2023/02/21 16:44:34;;;;;;;16.95;4.47;;;15.10;99.90;;;;;;20847668;28;20291;-83
2023/02/21 16:54:35;;;;;;;6.83;3.73;;;15.00;99.90;;;;;;20845753;28;20082;-81
2023/02/21 17:04:36;;;;;;;9.77;4.53;;;13.60;99.90;;;;;;20836827;28;20034;-82
2023/02/21 17:14:37;;;;;;;9.60;4.93;;;12.70;99.90;;;;;;20859003;28;20068;-82
2023/02/21 17:24:38;;;;;;;10.95;5.07;;;11.30;99.90;;;;;;20901993;28;20021;-81
2023/02/21 17:34:39;;;;;;;10.87;5.47;;;10.50;99.90;;;;;;20845213;28;20030;-82
2023/02/21 17:44:42;;;;;;;9.07;4.20;;;10.10;99.90;;;;;;20894984;28;20412;-82
2023/02/21 17:54:43;;;;;;;10.07;4.75;;;9.60;99.90;;;;;;20861852;28;20326;-81
2023/02/21 18:04:44;;;;;;;10.30;5.03;;;9.00;99.90;;;;;;20906925;28;20060;-79
2023/02/21 18:14:45;;;;;;;;;;;8.60;99.90;;;;;;20844130;28;20026;-81
2023/02/21 18:24:46;;;;;;;12.82;5.10;;;8.60;99.90;;;;;;20817154;28;19919;-81
2023/02/21 18:34:47;;;;;;;11.50;5.40;;;8.40;99.90;;;;;;20831278;28;20530;-79
2023/02/21 18:44:48;;;;;;;13.02;5.60;;;7.90;99.90;;;;;;20855901;28;20025;-81
2023/02/21 18:54:49;;;;;;;8.15;4.50;;;8.00;99.90;;;;;;20840003;28;20562;-81
2023/02/21 19:04:50;;;;;;;;;;;8.60;99.90;;;;;;20832733;28;20124;-82
2023/02/21 19:14:51;;;;;;;12.32;5.00;;;8.60;99.90;;;;;;20834294;28;20303;-81
2023/02/21 19:24:52;;;;;;;8.93;4.60;;;8.00;99.90;;;;;;20790910;28;20038;-79
2023/02/21 19:34:53;;;;;;;9.32;5.03;;;8.10;99.90;;;;;;20815675;28;20025;-78
2023/02/21 19:44:55;;;;;;;11.83;4.97;;;8.10;99.90;;;;;;20803685;28;20037;-80
2023/02/21 19:54:55;;;;;;;13.02;5.90;;;8.10;99.90;;;;;;20842861;28;20025;-81
2023/02/21 20:04:56;;;;;;;8.33;3.77;;;8.00;99.90;;;;;;20846175;28;20052;-81
2023/02/21 20:14:57;;;;;;;8.13;3.60;;;7.70;99.90;;;;;;20844582;28;20041;-80
2023/02/21 20:24:58;;;;;;;11.00;4.07;;;6.80;99.90;;;;;;20853416;28;20120;-81
2023/02/21 20:35:00;;;;;;;9.90;3.97;;;6.30;99.90;;;;;;20844061;28;20061;-81
2023/02/21 20:45:01;;;;;;;10.13;4.53;;;6.00;99.90;;;;;;20851134;28;20021;-81
2023/02/21 20:55:02;;;;;;;;;;;5.50;99.90;;;;;;20844429;28;20045;-81
2023/02/21 21:05:08;;;;;;;9.70;3.35;;;5.30;99.90;;;;;;20857225;28;20000;-81
2023/02/21 21:15:09;;;;;;;6.05;2.95;;;5.10;99.90;;;;;;20831549;28;20087;-81
2023/02/21 21:25:11;;;;;;;;;;;5.10;99.90;;;;;;20836093;28;20033;-79
2023/02/21 21:35:15;;;;;;;8.07;3.38;;;4.60;99.90;;;;;;20796557;28;19909;-80
2023/02/21 21:45:26;;;;;;;11.90;4.38;;;4.60;99.90;;;;;;20808166;28;20037;-81
2023/02/21 21:55:28;;;;;;;7.93;3.40;;;4.40;99.90;;;;;;20820998;28;20116;-80
2023/02/21 22:05:30;;;;;;;5.75;2.92;;;4.50;99.90;;;;;;20818685;28;20393;-81
2023/02/21 22:15:31;;;;;;;6.00;3.10;;;4.20;99.90;;;;;;20833761;28;20183;-81
2023/02/21 22:25:35;;;;;;;6.75;3.25;;;3.50;99.90;;;;;;20831297;28;20504;-80
2023/02/21 22:35:36;;;;;;;5.68;3.15;;;3.70;99.90;;;;;;20800927;28;20068;-81
2023/02/21 22:45:37;;;;;;;9.35;2.65;;;3.90;99.90;;;;;;20776033;28;20033;-81
2023/02/21 22:55:38;;;;;;;5.90;2.80;;;3.70;99.90;;;;;;20824488;28;20089;-80
2023/02/21 23:05:48;;;;;;;6.70;2.80;;;3.90;99.90;;;;;;20829090;28;20038;-80
2023/02/21 23:15:50;;;;;;;9.75;3.10;;;3.60;99.90;;;;;;20757557;28;20184;-80
2023/02/21 23:25:52;;;;;;;6.68;3.17;;;4.00;99.90;;;;;;20861321;28;20041;-81
2023/02/21 23:35:54;;;;;;;5.85;2.85;;;3.80;99.90;;;;;;20854114;28;20450;-80
2023/02/21 23:45:56;;;;;;;4.35;2.50;;;3.80;99.90;;;;;;20839840;28;20029;-79
2023/02/21 23:55:59;;;;;;;9.82;2.80;;;3.80;99.90;;;;;;20870802;28;20150;-80
